Disclaimer

Please do not use the information listed here in-flight or in-navigation, as they are not provided to us by the airports but are provided by volunteers, so they might be outdated.

Search


Regions


Airport information page

Radio informations:
Tower (TWR) - 133.85 MHz
RDR - 136.075 MHz
Ground (GND) - 121.925 MHz
Automatic Terminal Information Service (ATIS) - 126.025 MHz

Airport informations:
Latitude: 51° 22' 57.61" N
Longitude: 002° 43' 08.72" W
Elevation: 622 feet - 190 meters
Operating hours: 24 hour operations
Operating agency: Civil government, landing fees and diplomatic clearance may be required
Timezone: UTC 0(+1DT) - Last Sunday in March to last Sunday in October
Fuel: Jet A1, without icing nhibitor.

100/130 MIL Spec, low lead, aviation gasoline (BLUE)

Runway information:
09/27 - 6598 x 151 feet< - >2011 x 46 meters

Recent METARs:
EGGD 160920Z AUTO 18005KT 9999 NCD 05/04 Q1005
EGGD 160950Z AUTO 15007KT 9999 NCD 05/04 Q1005
EGGD 161020Z AUTO 15007KT 9999 NCD 06/05 Q1005

Airport on the map: